Time;durP1;ratioP1;P1;durP2;ratioP2;P2;SDS_P1;SDS_P2;PMS_P1;PMS_P2;Temp;Humidity;BMP_temperature;BMP_pressure;BME280_temperature;BME280_humidity;BME280_pressure;Samples;Min_cycle;Max_cycle;Signal;HPM_P1;HPM_P2
2024/04/13 00:02:05;;;;;;;7.00;3.20;;;;;;;;;;5417018;26;25112;-80
2024/04/13 00:04:31;;;;;;;5.00;3.15;;;;;;;;;;5417493;26;25064;-80
2024/04/13 00:06:57;;;;;;;8.00;2.95;;;;;;;;;;5404095;26;25056;-81
2024/04/13 00:09:23;;;;;;;6.45;2.97;;;;;;;;;;5415393;26;25065;-79
2024/04/13 00:11:49;;;;;;;5.40;3.42;;;;;;;;;;5408782;26;25056;-80
2024/04/13 00:14:15;;;;;;;4.20;2.95;;;;;;;;;;5411760;26;25095;-78
2024/04/13 00:16:41;;;;;;;3.60;3.00;;;;;;;;;;5406501;26;25057;-79
2024/04/13 00:19:07;;;;;;;5.30;3.22;;;;;;;;;;5421197;26;25154;-79
2024/04/13 00:21:33;;;;;;;8.02;3.10;;;;;;;;;;5414291;26;25065;-80
2024/04/13 00:23:59;;;;;;;8.63;3.05;;;;;;;;;;5412063;26;25090;-80
2024/04/13 00:26:27;;;;;;;5.70;3.00;;;;;;;;;;5415341;26;25069;-83
2024/04/13 00:28:54;;;;;;;5.53;3.17;;;;;;;;;;5417704;26;25050;-80
2024/04/13 00:31:20;;;;;;;5.13;2.90;;;;;;;;;;5411277;26;25041;-80
2024/04/13 00:33:47;;;;;;;4.45;3.33;;;;;;;;;;5402788;26;25191;-80
2024/04/13 00:36:13;;;;;;;3.75;3.25;;;;;;;;;;5394669;26;25074;-80
2024/04/13 00:38:39;;;;;;;3.85;2.92;;;;;;;;;;5399692;26;25053;-80
2024/04/13 00:41:05;;;;;;;2.85;2.55;;;;;;;;;;5403987;26;25038;-80
2024/04/13 00:43:31;;;;;;;7.70;3.40;;;;;;;;;;5399934;26;25092;-79
2024/04/13 00:46:06;;;;;;;3.47;3.17;;;;;;;;;;5408133;26;25114;-80
2024/04/13 00:48:32;;;;;;;5.55;3.58;;;;;;;;;;5408554;26;25061;-80
2024/04/13 00:51:00;;;;;;;4.00;3.20;;;;;;;;;;5403963;26;25056;-80
2024/04/13 00:53:28;;;;;;;4.63;3.63;;;;;;;;;;5405801;26;25034;-81
2024/04/13 00:55:54;;;;;;;3.65;2.85;;;;;;;;;;5390765;26;25118;-79
2024/04/13 00:58:26;;;;;;;3.22;2.92;;;;;;;;;;5407540;26;25058;-79
2024/04/13 01:00:52;;;;;;;6.15;3.60;;;;;;;;;;5418938;26;25041;-80
2024/04/13 01:03:22;;;;;;;6.13;3.60;;;;;;;;;;5426215;26;25069;-80
2024/04/13 01:05:50;;;;;;;8.32;3.47;;;;;;;;;;5422923;26;25050;-80
2024/04/13 01:08:16;;;;;;;4.45;3.55;;;;;;;;;;5417858;26;25111;-81
2024/04/13 01:10:43;;;;;;;3.78;3.42;;;;;;;;;;5406923;26;25046;-80
2024/04/13 01:13:12;;;;;;;5.70;3.40;;;;;;;;;;5412207;26;25073;-79
2024/04/13 01:15:38;;;;;;;4.15;3.53;;;;;;;;;;5407875;26;25057;-79
2024/04/13 01:18:05;;;;;;;5.60;3.67;;;;;;;;;;5412506;26;25064;-81
2024/04/13 01:20:33;;;;;;;8.88;3.50;;;;;;;;;;5406036;26;25068;-80
2024/04/13 01:22:59;;;;;;;6.25;3.53;;;;;;;;;;5400745;26;25046;-79
2024/04/13 01:25:26;;;;;;;7.32;3.58;;;;;;;;;;5419393;26;25044;-82
2024/04/13 01:27:52;;;;;;;5.43;3.75;;;;;;;;;;5417387;26;25059;-78
2024/04/13 01:30:18;;;;;;;4.70;3.28;;;;;;;;;;5415450;26;25059;-81
2024/04/13 01:32:44;;;;;;;5.93;3.40;;;;;;;;;;5421263;26;25070;-81
2024/04/13 01:35:11;;;;;;;4.10;3.38;;;;;;;;;;5431771;26;25038;-81
2024/04/13 01:37:37;;;;;;;6.85;3.25;;;;;;;;;;5431462;26;25056;-81
2024/04/13 01:40:04;;;;;;;4.57;3.20;;;;;;;;;;5417838;26;25044;-80
2024/04/13 01:42:30;;;;;;;8.65;4.03;;;;;;;;;;5409626;26;25088;-81
2024/04/13 01:44:56;;;;;;;5.20;2.97;;;;;;;;;;5399289;26;25054;-79
2024/04/13 01:47:22;;;;;;;5.35;3.28;;;;;;;;;;5406119;26;25096;-79
2024/04/13 01:49:48;;;;;;;7.63;3.67;;;;;;;;;;5408948;26;25075;-79
2024/04/13 01:52:14;;;;;;;2.80;2.50;;;;;;;;;;5416054;26;25048;-80
2024/04/13 01:54:40;;;;;;;7.75;4.30;;;;;;;;;;5415560;26;25099;-79
2024/04/13 01:57:06;;;;;;;4.20;3.42;;;;;;;;;;5417726;26;25079;-80
2024/04/13 01:59:32;;;;;;;5.30;3.05;;;;;;;;;;5414881;26;25063;-79
2024/04/13 02:01:58;;;;;;;4.43;3.45;;;;;;;;;;5410664;26;25049;-81
2024/04/13 02:04:24;;;;;;;8.38;3.60;;;;;;;;;;5406080;26;25064;-78
2024/04/13 02:06:50;;;;;;;5.55;3.40;;;;;;;;;;5414474;26;25052;-82
2024/04/13 02:09:18;;;;;;;5.78;3.38;;;;;;;;;;5425914;26;25039;-81
2024/04/13 02:11:44;;;;;;;4.95;3.25;;;;;;;;;;5389232;26;25159;-76
2024/04/13 02:14:11;;;;;;;4.68;3.15;;;;;;;;;;5395913;26;25075;-81
2024/04/13 02:16:37;;;;;;;4.05;3.33;;;;;;;;;;5396040;26;25106;-80
2024/04/13 02:19:04;;;;;;;5.72;3.00;;;;;;;;;;5409428;26;25192;-80
2024/04/13 02:21:30;;;;;;;3.88;2.95;;;;;;;;;;5388228;26;25060;-81
2024/04/13 02:23:56;;;;;;;3.65;3.17;;;;;;;;;;5388563;26;25071;-80
2024/04/13 02:26:22;;;;;;;4.15;3.13;;;;;;;;;;5401374;26;25050;-80
2024/04/13 02:28:49;;;;;;;5.38;3.20;;;;;;;;;;5395114;26;25121;-78
2024/04/13 02:31:14;;;;;;;6.50;3.50;;;;;;;;;;5395130;26;25071;-80
2024/04/13 02:33:41;;;;;;;4.57;3.60;;;;;;;;;;5404637;26;25069;-80
2024/04/13 02:36:07;;;;;;;4.15;2.80;;;;;;;;;;5397805;26;25057;-81
2024/04/13 02:38:33;;;;;;;4.97;3.25;;;;;;;;;;5406638;26;25056;-80
2024/04/13 02:41:00;;;;;;;4.88;3.97;;;;;;;;;;5408446;26;25123;-80
2024/04/13 02:43:32;;;;;;;3.42;3.13;;;;;;;;;;5398981;26;25068;-79
2024/04/13 02:46:07;;;;;;;5.05;3.30;;;;;;;;;;5384143;26;25089;-79
2024/04/13 02:48:33;;;;;;;6.82;3.67;;;;;;;;;;5392194;26;25055;-79
2024/04/13 02:50:59;;;;;;;5.97;3.22;;;;;;;;;;5393618;26;25042;-80
2024/04/13 02:53:25;;;;;;;6.78;3.72;;;;;;;;;;5394251;26;25031;-82
2024/04/13 02:55:51;;;;;;;5.97;3.20;;;;;;;;;;5402246;26;25154;-79
2024/04/13 02:58:17;;;;;;;5.25;3.35;;;;;;;;;;5400369;26;25042;-80
2024/04/13 03:00:53;;;;;;;6.03;3.38;;;;;;;;;;5399275;26;25081;-81
2024/04/13 03:03:20;;;;;;;7.20;3.83;;;;;;;;;;5409693;26;25033;-81
2024/04/13 03:05:46;;;;;;;5.72;3.47;;;;;;;;;;5407658;26;25057;-82
2024/04/13 03:08:11;;;;;;;6.53;3.58;;;;;;;;;;5392762;26;25066;-80
2024/04/13 03:10:38;;;;;;;6.45;3.28;;;;;;;;;;5387695;26;25066;-80
2024/04/13 03:13:05;;;;;;;5.88;3.38;;;;;;;;;;5402614;26;25089;-79
2024/04/13 03:15:31;;;;;;;7.03;3.53;;;;;;;;;;5407094;26;25125;-79
2024/04/13 03:17:57;;;;;;;4.28;3.40;;;;;;;;;;5400277;26;25067;-79
2024/04/13 03:20:25;;;;;;;8.35;3.63;;;;;;;;;;5405988;26;25124;-79
2024/04/13 03:22:51;;;;;;;5.25;3.60;;;;;;;;;;5404556;26;25072;-79
2024/04/13 03:25:17;;;;;;;5.70;3.38;;;;;;;;;;5407733;26;25082;-80
2024/04/13 03:27:43;;;;;;;6.43;3.70;;;;;;;;;;5404426;26;25058;-80
2024/04/13 03:30:09;;;;;;;5.32;3.17;;;;;;;;;;5405602;26;25060;-81
2024/04/13 03:32:35;;;;;;;4.63;3.40;;;;;;;;;;5409862;26;25090;-80
2024/04/13 03:35:03;;;;;;;7.97;3.58;;;;;;;;;;5405428;26;25119;-80
2024/04/13 03:37:29;;;;;;;6.22;3.58;;;;;;;;;;5400778;26;25040;-73
2024/04/13 03:39:55;;;;;;;5.32;3.58;;;;;;;;;;5391340;26;25065;-74
2024/04/13 03:42:21;;;;;;;7.55;3.95;;;;;;;;;;5389253;26;25050;-72
2024/04/13 03:44:47;;;;;;;5.20;3.33;;;;;;;;;;5388483;26;25045;-73
2024/04/13 03:47:13;;;;;;;6.10;3.35;;;;;;;;;;5394365;26;25033;-73
2024/04/13 03:49:39;;;;;;;7.97;3.75;;;;;;;;;;5391169;26;25111;-73
2024/04/13 03:52:05;;;;;;;4.40;3.63;;;;;;;;;;5390563;26;25050;-74
2024/04/13 03:54:31;;;;;;;6.35;3.47;;;;;;;;;;5402211;26;25048;-74
2024/04/13 03:56:57;;;;;;;6.45;4.05;;;;;;;;;;5406131;26;25035;-74
2024/04/13 03:59:23;;;;;;;5.82;3.80;;;;;;;;;;5395660;26;25058;-76
2024/04/13 04:01:49;;;;;;;5.40;3.80;;;;;;;;;;5393351;26;25041;-74
2024/04/13 04:04:15;;;;;;;5.40;3.60;;;;;;;;;;5420165;26;25107;-74
2024/04/13 04:06:43;;;;;;;7.30;3.53;;;;;;;;;;5396600;26;25040;-74
2024/04/13 04:09:10;;;;;;;5.63;3.35;;;;;;;;;;5396314;26;25046;-74
2024/04/13 04:11:36;;;;;;;6.10;3.92;;;;;;;;;;5399160;26;25066;-74
2024/04/13 04:14:02;;;;;;;5.25;3.55;;;;;;;;;;5393657;26;25119;-75
2024/04/13 04:16:28;;;;;;;7.13;4.05;;;;;;;;;;5394823;26;25036;-74
2024/04/13 04:18:54;;;;;;;4.85;3.45;;;;;;;;;;5391747;26;25118;-74
2024/04/13 04:21:22;;;;;;;8.15;3.90;;;;;;;;;;5396101;26;25049;-73
2024/04/13 04:23:48;;;;;;;6.68;3.90;;;;;;;;;;5404040;26;25048;-74
2024/04/13 04:26:17;;;;;;;5.32;3.42;;;;;;;;;;5406774;26;25098;-74
2024/04/13 04:28:43;;;;;;;6.15;3.60;;;;;;;;;;5386577;26;25097;-75
2024/04/13 04:31:12;;;;;;;5.78;3.53;;;;;;;;;;5392393;26;24939;-75
2024/04/13 04:33:38;;;;;;;7.53;3.70;;;;;;;;;;5400028;26;25063;-72
2024/04/13 04:36:05;;;;;;;5.93;3.33;;;;;;;;;;5405753;26;25109;-74
2024/04/13 04:38:31;;;;;;;7.85;3.95;;;;;;;;;;5400580;26;25141;-76
2024/04/13 04:40:57;;;;;;;6.25;3.97;;;;;;;;;;5392288;26;25096;-75
2024/04/13 04:43:23;;;;;;;7.72;3.83;;;;;;;;;;5392313;26;25068;-75
2024/04/13 04:45:51;;;;;;;7.70;3.92;;;;;;;;;;5403928;26;25024;-74
2024/04/13 04:48:17;;;;;;;5.03;4.00;;;;;;;;;;5393916;26;25035;-75
2024/04/13 04:50:43;;;;;;;4.53;3.67;;;;;;;;;;5389098;26;25047;-73
2024/04/13 04:53:09;;;;;;;4.43;3.00;;;;;;;;;;5398746;26;25049;-75
2024/04/13 04:55:35;;;;;;;4.63;3.65;;;;;;;;;;5402594;26;25050;-74
2024/04/13 04:58:01;;;;;;;7.43;3.80;;;;;;;;;;5405538;26;25087;-74
2024/04/13 05:00:27;;;;;;;5.55;3.92;;;;;;;;;;5389002;26;25067;-74
2024/04/13 05:02:53;;;;;;;5.43;4.03;;;;;;;;;;5403359;26;25106;-74
2024/04/13 05:05:19;;;;;;;5.28;3.83;;;;;;;;;;5402319;26;25044;-74
2024/04/13 05:07:45;;;;;;;4.90;3.47;;;;;;;;;;5399200;26;25073;-74
2024/04/13 05:10:11;;;;;;;5.05;3.80;;;;;;;;;;5404426;26;25047;-75
2024/04/13 05:12:37;;;;;;;6.82;4.03;;;;;;;;;;5395343;26;25055;-74
2024/04/13 05:15:04;;;;;;;7.43;3.92;;;;;;;;;;5398111;26;25077;-74
2024/04/13 05:17:30;;;;;;;6.90;3.95;;;;;;;;;;5403260;26;25076;-74
2024/04/13 05:19:55;;;;;;;8.52;3.65;;;;;;;;;;5390654;26;25119;-74
2024/04/13 05:22:21;;;;;;;8.45;3.95;;;;;;;;;;5398250;26;25038;-74
2024/04/13 05:24:47;;;;;;;7.15;3.95;;;;;;;;;;5405724;26;25060;-74
2024/04/13 05:27:13;;;;;;;8.65;3.92;;;;;;;;;;5398278;26;25075;-74
2024/04/13 05:29:39;;;;;;;8.30;4.15;;;;;;;;;;5400824;26;25058;-73
2024/04/13 05:32:06;;;;;;;6.38;3.85;;;;;;;;;;5402421;26;25127;-72
2024/04/13 05:34:32;;;;;;;8.77;4.07;;;;;;;;;;5406994;26;25115;-73
2024/04/13 05:36:58;;;;;;;6.97;4.20;;;;;;;;;;5395713;26;25054;-72
2024/04/13 05:39:24;;;;;;;5.20;3.88;;;;;;;;;;5391842;26;25038;-72
2024/04/13 05:41:49;;;;;;;7.43;4.07;;;;;;;;;;5387533;26;25042;-73
2024/04/13 05:44:15;;;;;;;6.25;3.80;;;;;;;;;;5387078;26;25069;-72
2024/04/13 05:46:41;;;;;;;6.78;4.20;;;;;;;;;;5405284;26;25047;-74
2024/04/13 05:49:08;;;;;;;6.13;4.57;;;;;;;;;;5399090;26;25060;-73
2024/04/13 05:51:34;;;;;;;6.03;3.95;;;;;;;;;;5383471;26;25047;-74
2024/04/13 05:54:00;;;;;;;4.97;4.13;;;;;;;;;;5392619;26;25058;-72
2024/04/13 05:56:26;;;;;;;7.95;4.40;;;;;;;;;;5398350;26;25084;-74
2024/04/13 05:58:51;;;;;;;5.88;3.95;;;;;;;;;;5401748;26;25049;-74
2024/04/13 06:01:17;;;;;;;7.00;4.13;;;;;;;;;;5405338;26;25053;-75
2024/04/13 06:03:43;;;;;;;6.40;4.55;;;;;;;;;;5395027;26;25065;-74
2024/04/13 06:06:09;;;;;;;6.55;4.50;;;;;;;;;;5396077;26;25064;-74
2024/04/13 06:08:35;;;;;;;5.45;4.90;;;;;;;;;;5394149;26;25047;-73
2024/04/13 06:11:03;;;;;;;10.90;5.07;;;;;;;;;;5387013;26;25214;-73
2024/04/13 06:13:29;;;;;;;10.25;5.15;;;;;;;;;;5401616;26;25062;-73
2024/04/13 06:15:54;;;;;;;8.90;5.00;;;;;;;;;;5394947;26;25050;-75
2024/04/13 06:18:21;;;;;;;10.52;5.43;;;;;;;;;;5394934;26;25035;-74
2024/04/13 06:20:47;;;;;;;9.93;5.10;;;;;;;;;;5390079;26;25071;-75
2024/04/13 06:23:12;;;;;;;7.68;4.85;;;;;;;;;;5384782;26;25065;-73
2024/04/13 06:25:38;;;;;;;6.75;5.00;;;;;;;;;;5386699;26;25146;-73
2024/04/13 06:28:04;;;;;;;7.68;4.82;;;;;;;;;;5393201;26;25053;-74
2024/04/13 06:30:30;;;;;;;10.48;6.22;;;;;;;;;;5394487;26;25088;-73
2024/04/13 06:32:56;;;;;;;11.65;5.30;;;;;;;;;;5392373;26;25065;-74
2024/04/13 06:35:22;;;;;;;13.43;6.18;;;;;;;;;;5419450;26;25122;-73
2024/04/13 06:37:48;;;;;;;11.45;5.40;;;;;;;;;;5392712;26;25072;-73
2024/04/13 06:40:14;;;;;;;9.73;5.80;;;;;;;;;;5410314;26;25094;-73
2024/04/13 06:42:40;;;;;;;9.50;5.80;;;;;;;;;;5407182;26;25050;-72
2024/04/13 06:45:06;;;;;;;8.95;6.18;;;;;;;;;;5402044;26;25035;-75
2024/04/13 06:47:32;;;;;;;10.35;5.95;;;;;;;;;;5401230;26;25043;-74
2024/04/13 06:49:58;;;;;;;10.20;6.50;;;;;;;;;;5409508;26;25042;-75
2024/04/13 06:52:24;;;;;;;7.60;6.18;;;;;;;;;;5395071;26;25053;-75
2024/04/13 06:54:50;;;;;;;7.68;6.15;;;;;;;;;;5408337;26;25073;-73
2024/04/13 06:57:17;;;;;;;9.75;6.07;;;;;;;;;;5408691;26;25051;-73
2024/04/13 06:59:44;;;;;;;8.23;6.35;;;;;;;;;;5408318;26;25061;-72
2024/04/13 07:02:10;;;;;;;9.85;5.68;;;;;;;;;;5406606;26;25074;-74
2024/04/13 07:04:36;;;;;;;13.75;5.82;;;;;;;;;;5397435;26;25045;-73
2024/04/13 07:07:02;;;;;;;11.43;5.90;;;;;;;;;;5389296;26;25057;-73
2024/04/13 07:09:28;;;;;;;8.68;5.50;;;;;;;;;;5434362;26;25066;-74
2024/04/13 07:11:56;;;;;;;12.20;5.95;;;;;;;;;;5407204;26;25070;-74
2024/04/13 07:14:22;;;;;;;10.50;5.20;;;;;;;;;;5399260;26;25140;-73
2024/04/13 07:16:49;;;;;;;9.60;5.35;;;;;;;;;;5397968;26;25060;-74
2024/04/13 07:19:15;;;;;;;8.13;5.50;;;;;;;;;;5402741;26;25056;-73
2024/04/13 07:21:41;;;;;;;13.43;5.78;;;;;;;;;;5402112;26;25057;-74
2024/04/13 07:24:07;;;;;;;8.18;5.38;;;;;;;;;;5400727;26;25066;-74
2024/04/13 07:26:33;;;;;;;7.75;5.22;;;;;;;;;;5403063;26;25042;-73
2024/04/13 07:28:59;;;;;;;8.80;4.95;;;;;;;;;;5404106;26;25112;-74
2024/04/13 07:31:25;;;;;;;10.63;5.70;;;;;;;;;;5399548;26;25091;-74
2024/04/13 07:33:51;;;;;;;8.65;5.32;;;;;;;;;;5397432;26;25041;-73
2024/04/13 07:36:17;;;;;;;10.45;5.07;;;;;;;;;;5389808;26;25116;-73
2024/04/13 07:38:43;;;;;;;9.63;5.32;;;;;;;;;;5401606;26;25036;-72
2024/04/13 07:41:09;;;;;;;10.48;5.50;;;;;;;;;;5394571;26;25152;-74
2024/04/13 07:43:35;;;;;;;14.95;6.20;;;;;;;;;;5402568;26;25065;-72
2024/04/13 07:46:01;;;;;;;11.32;4.95;;;;;;;;;;5401190;26;25096;-75
2024/04/13 07:48:27;;;;;;;6.63;5.80;;;;;;;;;;5429060;26;25081;-72
2024/04/13 07:50:53;;;;;;;9.57;6.07;;;;;;;;;;5400162;26;25036;-73
2024/04/13 07:53:19;;;;;;;14.77;5.72;;;;;;;;;;5392907;26;25100;-73
2024/04/13 07:55:45;;;;;;;12.32;5.55;;;;;;;;;;5403270;26;25060;-73
2024/04/13 07:58:11;;;;;;;10.50;6.28;;;;;;;;;;5398759;26;25071;-73
2024/04/13 08:00:39;;;;;;;9.45;5.60;;;;;;;;;;5399847;26;25044;-72
2024/04/13 08:03:05;;;;;;;11.15;5.68;;;;;;;;;;5400636;26;25067;-73
2024/04/13 08:05:31;;;;;;;8.77;5.45;;;;;;;;;;5401012;26;25055;-72
2024/04/13 08:07:57;;;;;;;8.25;5.35;;;;;;;;;;5404465;26;25106;-71
2024/04/13 08:10:23;;;;;;;11.75;5.82;;;;;;;;;;5404706;26;25048;-71
2024/04/13 08:12:49;;;;;;;10.77;5.57;;;;;;;;;;5394442;26;25038;-72
2024/04/13 08:15:15;;;;;;;7.43;5.30;;;;;;;;;;5400123;26;26152;-72
2024/04/13 08:17:41;;;;;;;8.45;5.68;;;;;;;;;;5406285;26;25037;-73
2024/04/13 08:20:09;;;;;;;7.82;6.03;;;;;;;;;;5397579;26;25044;-74
2024/04/13 08:22:35;;;;;;;8.98;5.38;;;;;;;;;;5401364;26;25061;-73
2024/04/13 08:25:01;;;;;;;13.07;5.90;;;;;;;;;;5399662;26;25049;-73
2024/04/13 08:27:27;;;;;;;10.40;6.20;;;;;;;;;;5395431;26;25023;-73
2024/04/13 08:29:53;;;;;;;10.50;6.35;;;;;;;;;;5392661;26;25065;-72
2024/04/13 08:32:19;;;;;;;11.60;6.65;;;;;;;;;;5403861;26;25046;-73
2024/04/13 08:34:45;;;;;;;9.00;5.95;;;;;;;;;;5403560;26;25065;-72
2024/04/13 08:37:11;;;;;;;10.27;6.55;;;;;;;;;;5403865;26;25049;-71
2024/04/13 08:39:37;;;;;;;11.18;5.70;;;;;;;;;;5394665;26;25066;-72
2024/04/13 08:42:05;;;;;;;14.75;8.20;;;;;;;;;;5398280;26;25034;-73
2024/04/13 08:44:31;;;;;;;13.52;7.60;;;;;;;;;;5394714;26;25060;-72
2024/04/13 08:46:59;;;;;;;12.18;7.70;;;;;;;;;;5403088;26;25099;-73
2024/04/13 08:49:27;;;;;;;15.32;9.50;;;;;;;;;;5400198;26;25154;-72
2024/04/13 08:51:53;;;;;;;14.98;9.88;;;;;;;;;;5406520;26;25093;-71
2024/04/13 08:54:19;;;;;;;19.90;10.48;;;;;;;;;;5398293;26;25053;-72
2024/04/13 08:56:47;;;;;;;16.08;10.20;;;;;;;;;;5397824;26;25057;-72
2024/04/13 08:59:13;;;;;;;25.77;10.70;;;;;;;;;;5404243;26;25068;-71
2024/04/13 09:01:43;;;;;;;22.90;11.18;;;;;;;;;;5402226;26;25046;-71
2024/04/13 09:04:09;;;;;;;18.48;11.98;;;;;;;;;;5388839;26;25024;-78
2024/04/13 09:06:35;;;;;;;19.80;11.43;;;;;;;;;;5406114;26;25067;-73
2024/04/13 09:09:08;;;;;;;18.90;11.20;;;;;;;;;;5397060;26;25042;-73
2024/04/13 09:11:35;;;;;;;14.75;11.50;;;;;;;;;;5400918;26;25111;-73
2024/04/13 09:14:02;;;;;;;21.58;12.63;;;;;;;;;;5399672;26;25046;-73
2024/04/13 09:16:29;;;;;;;18.98;12.43;;;;;;;;;;5399331;26;25038;-72
2024/04/13 09:18:55;;;;;;;16.05;11.63;;;;;;;;;;5398647;26;25107;-73
2024/04/13 09:21:20;;;;;;;21.98;12.20;;;;;;;;;;5385939;26;25071;-70
2024/04/13 09:23:47;;;;;;;20.45;12.43;;;;;;;;;;5396752;26;25051;-72
2024/04/13 09:26:13;;;;;;;21.52;12.98;;;;;;;;;;5399631;26;25054;-71
2024/04/13 09:28:39;;;;;;;25.17;13.30;;;;;;;;;;5402139;26;25033;-71
2024/04/13 09:31:06;;;;;;;21.85;12.02;;;;;;;;;;5404633;26;25033;-72
2024/04/13 09:33:32;;;;;;;21.45;11.95;;;;;;;;;;5399304;26;25069;-72
2024/04/13 09:35:58;;;;;;;20.67;12.77;;;;;;;;;;5395492;26;25041;-72
2024/04/13 09:38:24;;;;;;;31.33;15.13;;;;;;;;;;5407091;26;25047;-70
2024/04/13 09:41:00;;;;;;;21.05;12.00;;;;;;;;;;5406910;26;25068;-71
2024/04/13 09:43:26;;;;;;;18.05;12.27;;;;;;;;;;5398164;26;25084;-72
2024/04/13 09:45:58;;;;;;;19.40;11.45;;;;;;;;;;5406045;26;25054;-71
2024/04/13 09:48:24;;;;;;;17.85;10.95;;;;;;;;;;5405947;26;25060;-72
2024/04/13 09:50:50;;;;;;;19.48;9.88;;;;;;;;;;5387113;26;25047;-72
2024/04/13 09:53:20;;;;;;;19.80;9.93;;;;;;;;;;5387897;26;25096;-70
2024/04/13 09:55:46;;;;;;;21.80;9.63;;;;;;;;;;5396129;26;25026;-72
2024/04/13 09:58:16;;;;;;;18.50;9.98;;;;;;;;;;5399172;26;25110;-72
2024/04/13 10:00:46;;;;;;;14.50;8.88;;;;;;;;;;5397730;26;25052;-72
2024/04/13 10:03:13;;;;;;;17.00;9.27;;;;;;;;;;5389125;26;25058;-72
2024/04/13 10:05:40;;;;;;;15.80;9.25;;;;;;;;;;5400435;26;25126;-71
2024/04/13 10:08:07;;;;;;;12.38;8.63;;;;;;;;;;5399025;26;25051;-70
2024/04/13 10:10:37;;;;;;;15.13;8.93;;;;;;;;;;5390024;26;25200;-73
2024/04/13 10:13:04;;;;;;;19.77;8.85;;;;;;;;;;5397529;26;25062;-70
2024/04/13 10:15:31;;;;;;;10.57;7.10;;;;;;;;;;5394237;26;25045;-72
2024/04/13 10:17:58;;;;;;;11.20;8.05;;;;;;;;;;5396580;26;25113;-73
2024/04/13 10:20:24;;;;;;;13.68;7.68;;;;;;;;;;5393762;26;25047;-71
2024/04/13 10:22:58;;;;;;;12.70;7.07;;;;;;;;;;5397930;26;25063;-72
2024/04/13 10:25:31;;;;;;;13.73;8.35;;;;;;;;;;5400115;26;25061;-72
2024/04/13 10:28:13;;;;;;;12.23;7.20;;;;;;;;;;5406086;26;25056;-72
2024/04/13 10:30:43;;;;;;;15.13;7.07;;;;;;;;;;5403327;26;25058;-72
2024/04/13 10:33:21;;;;;;;12.90;7.07;;;;;;;;;;5404563;26;25061;-74
2024/04/13 10:35:52;;;;;;;14.00;7.07;;;;;;;;;;5394951;26;25058;-71
2024/04/13 10:38:18;;;;;;;13.38;7.63;;;;;;;;;;5400440;26;25057;-73
2024/04/13 10:40:44;;;;;;;11.30;6.50;;;;;;;;;;5401806;26;25039;-71
2024/04/13 10:43:16;;;;;;;12.05;7.03;;;;;;;;;;5403760;26;25064;-70
2024/04/13 10:45:42;;;;;;;15.02;7.03;;;;;;;;;;5392261;26;25058;-73
2024/04/13 10:48:08;;;;;;;11.98;7.05;;;;;;;;;;5394979;26;25042;-72
2024/04/13 10:50:34;;;;;;;13.48;6.65;;;;;;;;;;5398513;26;25079;-71
2024/04/13 10:53:00;;;;;;;9.10;6.07;;;;;;;;;;5393190;26;25069;-70
2024/04/13 10:55:26;;;;;;;15.15;7.18;;;;;;;;;;5396891;26;25073;-70
2024/04/13 10:57:52;;;;;;;8.20;6.13;;;;;;;;;;5402102;26;25134;-70
2024/04/13 11:00:18;;;;;;;15.35;6.18;;;;;;;;;;5403433;26;25034;-72
2024/04/13 11:02:50;;;;;;;9.75;5.53;;;;;;;;;;5396852;26;25055;-71
2024/04/13 11:05:20;;;;;;;12.20;5.72;;;;;;;;;;5393865;26;25065;-72
2024/04/13 11:07:46;;;;;;;9.43;4.93;;;;;;;;;;5392118;26;25046;-70
2024/04/13 11:10:13;;;;;;;8.50;4.70;;;;;;;;;;5395167;26;25044;-71
2024/04/13 11:12:39;;;;;;;5.20;3.45;;;;;;;;;;5398260;26;25051;-71
2024/04/13 11:15:05;;;;;;;5.20;3.47;;;;;;;;;;5403843;26;25131;-71
2024/04/13 11:17:31;;;;;;;4.90;2.80;;;;;;;;;;5397059;26;25106;-72
2024/04/13 11:19:58;;;;;;;7.38;3.40;;;;;;;;;;5394669;26;25043;-72
2024/04/13 11:22:26;;;;;;;6.38;3.60;;;;;;;;;;5403679;26;25067;-72
2024/04/13 11:24:53;;;;;;;8.32;3.40;;;;;;;;;;5401073;26;25056;-72
2024/04/13 11:27:19;;;;;;;5.82;3.25;;;;;;;;;;5401799;26;25076;-72
2024/04/13 11:29:45;;;;;;;7.47;4.00;;;;;;;;;;5387301;26;25053;-72
2024/04/13 11:32:11;;;;;;;9.45;3.25;;;;;;;;;;5399912;26;25056;-72
2024/04/13 11:34:38;;;;;;;5.93;4.15;;;;;;;;;;5398174;26;25057;-71
2024/04/13 11:37:05;;;;;;;8.10;3.65;;;;;;;;;;5402740;26;25049;-71
2024/04/13 11:39:34;;;;;;;7.45;4.25;;;;;;;;;;5395662;26;25140;-71
2024/04/13 11:42:07;;;;;;;10.82;4.68;;;;;;;;;;5395403;26;25042;-75
2024/04/13 11:44:33;;;;;;;8.45;4.47;;;;;;;;;;5397091;26;25034;-71
2024/04/13 11:47:00;;;;;;;8.30;4.32;;;;;;;;;;5389381;26;25056;-74
2024/04/13 11:49:27;;;;;;;9.68;5.00;;;;;;;;;;5425224;26;25092;-75
2024/04/13 11:51:53;;;;;;;10.60;4.70;;;;;;;;;;5396665;26;25042;-71
2024/04/13 11:54:19;;;;;;;5.10;4.45;;;;;;;;;;5375048;26;25130;-73
2024/04/13 11:56:45;;;;;;;7.00;4.80;;;;;;;;;;5387585;26;25087;-71
2024/04/13 11:59:15;;;;;;;8.70;4.85;;;;;;;;;;5401082;26;25132;-72
2024/04/13 12:01:41;;;;;;;10.52;5.10;;;;;;;;;;5402633;26;25072;-72
2024/04/13 12:04:07;;;;;;;5.47;4.22;;;;;;;;;;5405552;26;25056;-72
2024/04/13 12:06:33;;;;;;;6.70;4.60;;;;;;;;;;5403285;26;25078;-72
2024/04/13 12:08:59;;;;;;;7.55;4.28;;;;;;;;;;5403029;26;25052;-70
2024/04/13 12:11:30;;;;;;;6.03;4.10;;;;;;;;;;5403950;26;25113;-72
2024/04/13 12:13:56;;;;;;;10.73;4.47;;;;;;;;;;5397775;26;25075;-71
2024/04/13 12:16:22;;;;;;;9.90;4.65;;;;;;;;;;5388493;26;25105;-76
2024/04/13 12:18:48;;;;;;;7.10;5.20;;;;;;;;;;5402891;26;25062;-72
2024/04/13 12:21:15;;;;;;;10.50;4.80;;;;;;;;;;5406318;26;25107;-77
2024/04/13 12:23:41;;;;;;;6.75;4.35;;;;;;;;;;5398242;26;25055;-72
2024/04/13 12:26:07;;;;;;;9.05;4.68;;;;;;;;;;5380597;26;25110;-73
2024/04/13 12:28:33;;;;;;;8.63;4.28;;;;;;;;;;5404106;26;25050;-72
2024/04/13 12:30:59;;;;;;;6.57;3.90;;;;;;;;;;5382779;26;25077;-75
2024/04/13 12:33:25;;;;;;;8.57;4.47;;;;;;;;;;5412189;26;25086;-72
2024/04/13 12:35:54;;;;;;;9.05;4.93;;;;;;;;;;5403521;26;25041;-72
2024/04/13 12:38:20;;;;;;;7.07;4.25;;;;;;;;;;5392672;26;25066;-75
2024/04/13 12:40:46;;;;;;;6.88;4.30;;;;;;;;;;5398918;26;25059;-73
2024/04/13 12:43:12;;;;;;;11.05;4.88;;;;;;;;;;5379339;26;25048;-73
2024/04/13 12:45:38;;;;;;;6.25;4.55;;;;;;;;;;5400363;26;25122;-73
2024/04/13 12:48:04;;;;;;;11.45;5.95;;;;;;;;;;5391312;26;25034;-74
2024/04/13 12:50:30;;;;;;;8.70;4.88;;;;;;;;;;5404978;26;25169;-72
2024/04/13 12:52:56;;;;;;;11.52;4.97;;;;;;;;;;5390401;26;25062;-71
2024/04/13 12:55:22;;;;;;;10.73;4.75;;;;;;;;;;5395072;26;25107;-72
2024/04/13 12:57:48;;;;;;;8.68;4.63;;;;;;;;;;5397306;26;25066;-72
2024/04/13 13:00:15;;;;;;;8.63;4.55;;;;;;;;;;5387153;26;25070;-74
2024/04/13 13:02:41;;;;;;;14.20;5.68;;;;;;;;;;5391983;26;25184;-73
2024/04/13 13:05:07;;;;;;;12.82;6.07;;;;;;;;;;5393315;26;25031;-72
2024/04/13 13:07:33;;;;;;;9.13;5.80;;;;;;;;;;5405609;26;25055;-75
2024/04/13 13:09:59;;;;;;;9.63;6.32;;;;;;;;;;5395850;26;25053;-70
2024/04/13 13:12:25;;;;;;;10.02;6.07;;;;;;;;;;5391496;26;25070;-74
2024/04/13 13:14:51;;;;;;;8.70;5.65;;;;;;;;;;5404942;26;25048;-73
2024/04/13 13:17:17;;;;;;;12.43;7.05;;;;;;;;;;5400766;26;25033;-73
2024/04/13 13:19:43;;;;;;;8.85;5.78;;;;;;;;;;5401503;26;25112;-73
2024/04/13 13:22:09;;;;;;;10.10;5.93;;;;;;;;;;5386641;26;25064;-73
2024/04/13 13:24:35;;;;;;;9.07;5.88;;;;;;;;;;5397605;26;25054;-72
2024/04/13 13:27:02;;;;;;;12.30;5.25;;;;;;;;;;5398520;26;25057;-74
2024/04/13 13:29:28;;;;;;;8.95;5.43;;;;;;;;;;5408055;26;25035;-72
2024/04/13 13:31:54;;;;;;;8.95;5.45;;;;;;;;;;5396341;26;25048;-75
2024/04/13 13:34:20;;;;;;;8.82;5.63;;;;;;;;;;5398138;26;25500;-72
2024/04/13 13:36:46;;;;;;;10.13;5.95;;;;;;;;;;5405357;26;25091;-72
2024/04/13 13:39:12;;;;;;;9.02;5.03;;;;;;;;;;5394925;26;25067;-73
2024/04/13 13:41:38;;;;;;;7.05;5.20;;;;;;;;;;5404236;26;25049;-73
2024/04/13 13:44:05;;;;;;;9.93;5.63;;;;;;;;;;5392115;26;25057;-73
2024/04/13 13:46:31;;;;;;;9.25;5.40;;;;;;;;;;5402528;26;25052;-71
2024/04/13 13:48:57;;;;;;;9.38;4.90;;;;;;;;;;5383273;26;25127;-75
2024/04/13 13:51:23;;;;;;;10.57;5.40;;;;;;;;;;5393328;26;25058;-74
2024/04/13 13:53:49;;;;;;;6.97;5.28;;;;;;;;;;5397732;26;25095;-74
2024/04/13 13:56:15;;;;;;;12.95;5.63;;;;;;;;;;5401318;26;25092;-72
2024/04/13 13:58:41;;;;;;;5.40;4.90;;;;;;;;;;5399865;26;25188;-73
2024/04/13 14:01:07;;;;;;;8.75;4.72;;;;;;;;;;5399696;26;25128;-74
2024/04/13 14:03:34;;;;;;;8.73;5.50;;;;;;;;;;5387624;26;25044;-72
2024/04/13 14:06:06;;;;;;;7.22;4.05;;;;;;;;;;5404761;26;25038;-74
2024/04/13 14:08:32;;;;;;;6.65;5.13;;;;;;;;;;5421795;26;25052;-74
2024/04/13 14:10:58;;;;;;;9.52;5.03;;;;;;;;;;5399731;26;25099;-73
2024/04/13 14:13:24;;;;;;;11.73;5.30;;;;;;;;;;5405256;26;25075;-74
2024/04/13 14:15:50;;;;;;;11.55;5.15;;;;;;;;;;5398934;26;25043;-74
2024/04/13 14:18:16;;;;;;;8.55;4.80;;;;;;;;;;5394438;26;25039;-73
2024/04/13 14:20:43;;;;;;;10.82;5.10;;;;;;;;;;5386517;26;25055;-74
2024/04/13 14:23:09;;;;;;;12.43;4.97;;;;;;;;;;5397586;26;25058;-73
2024/04/13 14:25:35;;;;;;;15.20;5.00;;;;;;;;;;5398696;26;25055;-78
2024/04/13 14:28:01;;;;;;;7.10;4.47;;;;;;;;;;5403814;26;25046;-73
2024/04/13 14:30:27;;;;;;;7.93;4.25;;;;;;;;;;5396344;26;25055;-74
2024/04/13 14:32:53;;;;;;;8.05;4.20;;;;;;;;;;5396560;26;25059;-72
2024/04/13 14:35:20;;;;;;;12.50;4.28;;;;;;;;;;5388810;26;25051;-73